Time;durP1;ratioP1;P1;durP2;ratioP2;P2;SDS_P1;SDS_P2;PMS_P1;PMS_P2;Temp;Humidity;BMP_temperature;BMP_pressure;BME280_temperature;BME280_humidity;BME280_pressure;Samples;Min_cycle;Max_cycle;Signal;HPM_P1;HPM_P2
2021/10/21 00:02:00;;;;;;;5.90;1.23;;;;;;;11.22;98.30;99410.75;6218392;23;20005;-74
2021/10/21 00:04:25;;;;;;;10.82;1.35;;;;;;;11.22;98.15;99412.72;6167769;23;20012;-74
2021/10/21 00:06:51;;;;;;;14.60;1.70;;;;;;;11.20;98.53;99440.84;6218434;23;20016;-74
2021/10/21 00:09:17;;;;;;;7.45;1.40;;;;;;;11.16;98.62;99448.97;6218750;23;20083;-74
2021/10/21 00:11:42;;;;;;;10.27;1.42;;;;;;;11.16;99.01;99454.53;6192182;23;20030;-74
2021/10/21 00:14:08;;;;;;;6.43;1.02;;;;;;;11.14;99.32;99431.84;6218218;23;20015;-74
2021/10/21 00:16:33;;;;;;;8.65;1.30;;;;;;;11.16;99.19;99459.28;6192362;23;20012;-74
2021/10/21 00:18:59;;;;;;;8.85;1.00;;;;;;;11.18;99.41;99473.69;6167476;23;20495;-74
2021/10/21 00:21:24;;;;;;;9.48;1.20;;;;;;;11.16;99.36;99495.41;6142312;23;20013;-74
2021/10/21 00:23:50;;;;;;;5.70;1.00;;;;;;;11.19;99.31;99503.09;6142891;23;20012;-74
2021/10/21 00:26:15;;;;;;;10.05;0.90;;;;;;;11.10;99.50;99500.31;6191858;23;20092;-74
2021/10/21 00:28:41;;;;;;;10.65;1.50;;;;;;;11.07;99.72;99514.03;6218240;23;20009;-74
2021/10/21 00:31:06;;;;;;;9.55;1.30;;;;;;;11.09;99.30;99520.09;6218873;23;20032;-74
2021/10/21 00:33:32;;;;;;;6.50;0.88;;;;;;;11.09;99.23;99525.66;6166902;23;20055;-74
2021/10/21 00:35:58;;;;;;;6.65;0.98;;;;;;;11.00;99.61;99533.09;6142316;23;20004;-74
2021/10/21 00:38:23;;;;;;;8.98;0.88;;;;;;;10.97;99.34;99542.91;6167307;23;20012;-74
2021/10/21 00:40:49;;;;;;;6.13;0.95;;;;;;;10.92;99.40;99551.38;6142887;23;20012;-74
2021/10/21 00:43:14;;;;;;;7.97;0.95;;;;;;;10.87;99.64;99557.09;6191817;23;20004;-74
2021/10/21 00:45:40;;;;;;;9.73;1.27;;;;;;;10.84;99.74;99569.66;6218483;23;20095;-74
2021/10/21 00:48:05;;;;;;;6.57;1.05;;;;;;;10.84;99.57;99569.66;6218266;23;20334;-74
2021/10/21 00:50:31;;;;;;;4.45;0.90;;;;;;;10.79;99.53;99583.66;6218332;23;20039;-74
2021/10/21 00:52:58;;;;;;;8.70;1.13;;;;;;;10.76;99.75;99586.28;6218742;23;20063;-74
2021/10/21 00:55:23;;;;;;;8.93;1.50;;;;;;;10.74;99.79;99600.47;6191652;23;20004;-74
2021/10/21 00:57:49;;;;;;;6.13;1.00;;;;;;;10.71;99.93;99590.81;6142654;23;20020;-74
2021/10/21 01:00:14;;;;;;;6.85;1.25;;;;;;;10.67;99.95;99602.84;6218212;23;20307;-74
2021/10/21 01:02:40;;;;;;;4.93;0.80;;;;;;;10.64;100.00;99614.59;6191410;23;20017;-74
2021/10/21 01:05:06;;;;;;;4.00;0.98;;;;;;;10.59;100.00;99623.91;6218617;23;20422;-74
2021/10/21 01:07:33;;;;;;;9.35;1.73;;;;;;;10.51;100.00;99621.88;6191844;23;20084;-74
2021/10/21 01:09:59;;;;;;;7.97;0.90;;;;;;;10.50;100.00;99634.09;6191448;23;20015;-74
2021/10/21 01:12:24;;;;;;;7.88;0.93;;;;;;;10.49;100.00;99632.47;6167051;23;20430;-74
2021/10/21 01:14:50;;;;;;;7.38;0.68;;;;;;;10.48;100.00;99639.97;6168366;23;20013;-75
2021/10/21 01:17:15;;;;;;;9.05;1.30;;;;;;;10.43;99.96;99640.09;6168981;23;20008;-74
2021/10/21 01:19:41;;;;;;;6.13;1.30;;;;;;;10.46;99.81;99653.34;6220795;23;20088;-74
2021/10/21 01:22:07;;;;;;;8.02;0.70;;;;;;;10.42;100.00;99652.34;6193610;23;20009;-73
2021/10/21 01:24:32;;;;;;;6.72;0.80;;;;;;;10.40;100.00;99660.16;6220156;23;20012;-73
2021/10/21 01:26:58;;;;;;;5.75;1.20;;;;;;;10.34;99.98;99666.97;6220414;23;20023;-73
2021/10/21 01:29:24;;;;;;;9.48;1.48;;;;;;;10.27;100.00;99672.13;6219874;23;20012;-73
2021/10/21 01:31:50;;;;;;;5.28;1.20;;;;;;;10.27;100.00;99683.22;6220288;23;20005;-74
2021/10/21 01:34:15;;;;;;;9.18;1.00;;;;;;;10.24;100.00;99689.38;6168941;23;20019;-74
2021/10/21 01:36:41;;;;;;;4.93;1.10;;;;;;;10.22;99.91;99697.16;6219889;23;20334;-74
2021/10/21 01:39:09;;;;;;;7.95;1.17;;;;;;;10.17;100.00;99705.59;6220265;23;20005;-74
2021/10/21 01:41:34;;;;;;;10.80;1.35;;;;;;;10.13;100.00;99694.31;6119917;23;20008;-74
2021/10/21 01:44:00;;;;;;;5.38;1.23;;;;;;;10.12;100.00;99706.56;6143912;23;20015;-74
2021/10/21 01:46:25;;;;;;;7.25;1.45;;;;;;;10.10;100.00;99716.31;6169022;23;20080;-73
2021/10/21 01:48:51;;;;;;;5.90;1.20;;;;;;;10.11;100.00;99713.22;6193488;23;20027;-74
2021/10/21 01:51:17;;;;;;;9.93;1.70;;;;;;;10.03;100.00;99725.06;6168288;23;20015;-74
2021/10/21 01:53:43;;;;;;;8.00;1.42;;;;;;;9.97;100.00;99734.59;6169212;23;20008;-74
2021/10/21 01:56:08;;;;;;;7.55;1.00;;;;;;;9.96;100.00;99736.56;6193437;23;20015;-74
2021/10/21 01:58:34;;;;;;;8.55;1.65;;;;;;;9.95;100.00;99734.13;6193276;23;20000;-74
2021/10/21 02:01:00;;;;;;;7.45;1.13;;;;;;;9.94;100.00;99749.09;6168624;23;20004;-74
2021/10/21 02:03:25;;;;;;;10.23;1.48;;;;;;;9.91;100.00;99758.03;6219730;23;20005;-74
2021/10/21 02:05:51;;;;;;;10.23;1.40;;;;;;;9.91;100.00;99758.84;6220257;23;20066;-74
2021/10/21 02:08:16;;;;;;;13.43;1.65;;;;;;;9.89;100.00;99769.44;6220011;23;20015;-74
2021/10/21 02:10:42;;;;;;;7.07;1.40;;;;;;;9.83;100.00;99778.97;6219602;23;20008;-74
2021/10/21 02:13:07;;;;;;;7.25;1.08;;;;;;;9.80;100.00;99785.97;6193399;23;20015;-74
2021/10/21 02:15:33;;;;;;;10.88;1.70;;;;;;;9.75;100.00;99782.47;6219574;23;20004;-74
2021/10/21 02:17:59;;;;;;;13.50;1.88;;;;;;;9.74;100.00;99787.19;6193191;23;20009;-74
2021/10/21 02:20:24;;;;;;;9.95;1.63;;;;;;;9.69;100.00;99780.91;6219977;23;20009;-74
2021/10/21 02:22:50;;;;;;;8.93;1.42;;;;;;;9.70;100.00;99805.56;6220382;23;20008;-74
2021/10/21 02:25:16;;;;;;;9.82;1.90;;;;;;;9.67;100.00;99803.41;6219211;23;20020;-74
2021/10/21 02:27:41;;;;;;;11.55;1.45;;;;;;;9.66;100.00;99810.06;6219834;23;20050;-74
2021/10/21 02:30:07;;;;;;;8.82;1.60;;;;;;;9.65;100.00;99811.22;6219378;23;20004;-74
2021/10/21 02:32:33;;;;;;;11.32;1.60;;;;;;;9.64;100.00;99815.13;6193047;23;20383;-74
2021/10/21 02:34:58;;;;;;;10.80;1.88;;;;;;;9.64;100.00;99820.66;6220074;23;20013;-74
2021/10/21 02:37:24;;;;;;;10.05;1.75;;;;;;;9.62;100.00;99817.38;6193016;23;20008;-74
2021/10/21 02:39:49;;;;;;;11.90;1.90;;;;;;;9.58;100.00;99819.94;6219429;23;20000;-74
2021/10/21 02:42:15;;;;;;;10.27;1.80;;;;;;;9.58;100.00;99822.72;6219820;23;20012;-74
2021/10/21 02:44:40;;;;;;;7.78;1.52;;;;;;;9.57;100.00;99832.13;6219234;23;20009;-74
2021/10/21 02:47:06;;;;;;;9.32;1.90;;;;;;;9.53;100.00;99839.41;6192978;23;20004;-74
2021/10/21 02:49:32;;;;;;;10.30;1.83;;;;;;;9.49;100.00;99838.38;6219815;23;20008;-74
2021/10/21 02:51:57;;;;;;;11.75;2.03;;;;;;;9.50;100.00;99850.28;6192410;23;20449;-74
2021/10/21 02:54:23;;;;;;;8.93;1.73;;;;;;;9.46;100.00;99855.59;6193058;23;20008;-74
2021/10/21 02:56:48;;;;;;;14.60;2.25;;;;;;;9.42;100.00;99864.81;6219762;23;20524;-74
2021/10/21 02:59:14;;;;;;;12.27;2.25;;;;;;;9.39;100.00;99869.88;6218888;23;20008;-74
2021/10/21 03:01:39;;;;;;;14.38;1.77;;;;;;;9.39;100.00;99871.81;6192921;23;20489;-74
2021/10/21 03:04:05;;;;;;;9.85;2.00;;;;;;;9.38;100.00;99872.91;6219532;23;20008;-74
2021/10/21 03:06:30;;;;;;;8.00;1.63;;;;;;;9.35;100.00;99879.06;6167566;23;20481;-74
2021/10/21 03:08:56;;;;;;;10.05;1.67;;;;;;;9.33;100.00;99884.09;6218015;23;20342;-74
2021/10/21 03:11:21;;;;;;;9.30;2.38;;;;;;;9.31;100.00;99889.94;6219398;23;20009;-74
2021/10/21 03:13:47;;;;;;;13.25;2.25;;;;;;;9.29;100.00;99891.38;6217389;23;20422;-74
2021/10/21 03:16:13;;;;;;;11.15;1.92;;;;;;;9.27;100.00;99891.66;6219729;23;20016;-74
2021/10/21 03:18:38;;;;;;;12.00;2.53;;;;;;;9.25;100.00;99901.38;6219203;23;20067;-74
2021/10/21 03:21:03;;;;;;;13.15;2.10;;;;;;;9.24;100.00;99910.84;6219030;23;20020;-74
2021/10/21 03:23:29;;;;;;;10.85;2.20;;;;;;;9.21;100.00;99908.66;6219567;23;20016;-74
2021/10/21 03:25:54;;;;;;;12.65;2.22;;;;;;;9.18;100.00;99913.66;6167409;23;20021;-74
2021/10/21 03:28:21;;;;;;;10.40;2.22;;;;;;;9.17;100.00;99919.53;6192744;23;20008;-74
2021/10/21 03:30:46;;;;;;;12.60;2.22;;;;;;;9.16;100.00;99923.41;6192598;23;20020;-74
2021/10/21 03:33:12;;;;;;;9.88;2.08;;;;;;;9.15;100.00;99930.06;6218807;23;20016;-74
2021/10/21 03:35:38;;;;;;;11.50;1.80;;;;;;;9.07;100.00;99939.88;6192148;23;20033;-74
2021/10/21 03:38:03;;;;;;;12.52;2.35;;;;;;;9.08;100.00;99936.00;6217616;23;20016;-76
2021/10/21 03:40:29;;;;;;;10.27;2.50;;;;;;;9.04;100.00;99939.66;6218568;23;20008;-74
2021/10/21 03:42:54;;;;;;;7.28;1.75;;;;;;;9.06;100.00;99943.78;6219368;23;20008;-74
2021/10/21 03:45:20;;;;;;;11.82;1.85;;;;;;;9.04;100.00;99951.56;6218754;23;20013;-74
2021/10/21 03:47:46;;;;;;;10.88;1.70;;;;;;;9.02;100.00;99950.19;6218827;23;20007;-74
2021/10/21 03:50:11;;;;;;;9.00;1.65;;;;;;;9.00;100.00;99960.75;6219019;23;20009;-74
2021/10/21 03:52:37;;;;;;;10.30;1.98;;;;;;;8.99;100.00;99973.78;6192425;23;20004;-74
2021/10/21 03:55:03;;;;;;;9.23;1.90;;;;;;;8.95;100.00;99978.28;6192361;23;20016;-74
2021/10/21 03:57:28;;;;;;;8.48;2.00;;;;;;;8.90;100.00;99981.91;6219158;23;20000;-74
2021/10/21 03:59:54;;;;;;;10.10;1.80;;;;;;;8.90;100.00;99978.31;6191618;23;20009;-74
2021/10/21 04:02:19;;;;;;;12.07;2.42;;;;;;;8.87;100.00;99982.50;6218887;23;20004;-74
2021/10/21 04:04:45;;;;;;;9.40;1.70;;;;;;;8.84;100.00;99980.34;6219076;23;20078;-74
2021/10/21 04:07:10;;;;;;;10.70;2.10;;;;;;;8.82;100.00;99984.50;6218746;23;20012;-74
2021/10/21 04:09:36;;;;;;;8.52;1.75;;;;;;;8.86;100.00;99994.72;6192377;23;20374;-74
2021/10/21 04:12:01;;;;;;;6.07;1.60;;;;;;;8.84;100.00;100007.22;6218922;23;20012;-74
2021/10/21 04:14:27;;;;;;;12.98;2.45;;;;;;;8.81;100.00;99996.72;6218059;23;20063;-74
2021/10/21 04:16:52;;;;;;;12.18;2.20;;;;;;;8.79;100.00;100008.06;6218878;23;20008;-74
2021/10/21 04:19:18;;;;;;;13.82;2.33;;;;;;;8.77;100.00;100017.78;6217270;23;20004;-74
2021/10/21 04:21:43;;;;;;;8.32;1.75;;;;;;;8.73;100.00;100015.63;6218720;22;20446;-74
2021/10/21 04:24:09;;;;;;;10.35;1.85;;;;;;;8.69;100.00;100020.09;6218750;23;20016;-74
2021/10/21 04:26:34;;;;;;;12.13;2.00;;;;;;;8.67;100.00;100021.50;6218360;23;20017;-74
2021/10/21 04:29:00;;;;;;;13.75;2.20;;;;;;;8.66;100.00;100017.94;6218239;23;20005;-74
2021/10/21 04:31:26;;;;;;;10.18;2.17;;;;;;;8.65;100.00;100020.97;6192133;23;20008;-74
2021/10/21 04:33:51;;;;;;;14.32;2.17;;;;;;;8.62;100.00;100019.63;6191558;23;20015;-74
2021/10/21 04:36:17;;;;;;;11.48;2.17;;;;;;;8.61;100.00;100030.97;6217907;23;20016;-74
2021/10/21 04:38:42;;;;;;;13.45;1.90;;;;;;;8.59;99.93;100027.69;6191957;23;20027;-74
2021/10/21 04:41:08;;;;;;;9.63;1.90;;;;;;;8.55;100.00;100032.97;6191944;23;20312;-74
2021/10/21 04:43:33;;;;;;;8.85;1.52;;;;;;;8.53;100.00;100029.69;6191512;23;20012;-74
2021/10/21 04:45:58;;;;;;;12.25;2.35;;;;;;;8.52;100.00;100027.19;6218672;23;20043;-73
2021/10/21 04:48:24;;;;;;;9.05;1.92;;;;;;;8.47;100.00;100030.84;6218055;23;20016;-73
2021/10/21 04:50:49;;;;;;;10.55;1.83;;;;;;;8.43;100.00;100030.59;6217959;23;20004;-73
2021/10/21 04:53:15;;;;;;;10.75;2.00;;;;;;;8.43;100.00;100030.59;6192194;23;20013;-73
2021/10/21 04:55:40;;;;;;;9.60;1.90;;;;;;;8.42;100.00;100030.91;6191576;23;20330;-73
2021/10/21 04:58:06;;;;;;;13.82;2.13;;;;;;;8.39;100.00;100034.25;6167024;23;20013;-73
2021/10/21 05:00:33;;;;;;;5.40;1.80;;;;;;;8.40;100.00;100033.13;6167010;23;19996;-73
2021/10/21 05:03:08;;;;;;;6.65;1.60;;;;;;;8.39;100.00;100028.72;6166938;23;20326;-73
2021/10/21 05:05:34;;;;;;;12.25;2.13;;;;;;;8.39;100.00;100031.50;6193875;23;20063;-74
2021/10/21 05:08:00;;;;;;;7.70;1.75;;;;;;;8.40;100.00;100038.66;6218408;23;20008;-73
2021/10/21 05:10:25;;;;;;;10.13;2.10;;;;;;;8.37;100.00;100030.91;6218048;23;20000;-73
2021/10/21 05:12:51;;;;;;;12.90;2.38;;;;;;;8.34;100.00;100037.03;6218296;23;20016;-73
2021/10/21 05:15:18;;;;;;;15.13;2.28;;;;;;;8.35;100.00;100039.50;6218190;23;20009;-73
2021/10/21 05:17:43;;;;;;;9.32;1.73;;;;;;;8.33;100.00;100044.50;6116602;23;20429;-74
2021/10/21 05:20:10;;;;;;;10.68;1.63;;;;;;;8.33;100.00;100041.75;6218001;23;20032;-74
2021/10/21 05:22:36;;;;;;;9.85;1.95;;;;;;;8.34;100.00;100039.81;6218144;23;20008;-74
2021/10/21 05:25:01;;;;;;;11.15;1.83;;;;;;;8.31;100.00;100043.16;6216035;23;20015;-74
2021/10/21 05:27:27;;;;;;;7.85;2.28;;;;;;;8.33;100.00;100046.44;6218437;23;20028;-74
2021/10/21 05:29:52;;;;;;;11.45;2.08;;;;;;;8.32;100.00;100044.78;6191515;23;20005;-73
2021/10/21 05:32:17;;;;;;;9.20;2.15;;;;;;;8.29;100.00;100038.72;6217797;23;20013;-74
2021/10/21 05:34:45;;;;;;;12.43;2.38;;;;;;;8.29;100.00;100044.25;6192525;23;20303;-74
2021/10/21 05:37:11;;;;;;;11.50;1.90;;;;;;;8.31;100.00;100049.50;6218106;23;20084;-74
2021/10/21 05:39:36;;;;;;;13.13;2.03;;;;;;;8.28;100.00;100056.44;6191013;23;20050;-74
2021/10/21 05:42:02;;;;;;;9.38;2.00;;;;;;;8.27;100.00;100052.03;6218534;23;20031;-73
2021/10/21 05:44:28;;;;;;;10.20;2.00;;;;;;;8.29;100.00;100046.19;6217644;23;20449;-74
2021/10/21 05:46:54;;;;;;;10.07;2.03;;;;;;;8.28;100.00;100050.91;6191610;23;20012;-74
2021/10/21 05:49:19;;;;;;;12.07;2.10;;;;;;;8.26;100.00;100042.06;6218391;23;20015;-73
2021/10/21 05:51:45;;;;;;;12.98;2.03;;;;;;;8.23;100.00;100050.13;6217829;23;20009;-74
2021/10/21 05:54:10;;;;;;;11.25;2.15;;;;;;;8.23;100.00;100047.38;6191356;23;20009;-73
2021/10/21 05:56:36;;;;;;;8.15;1.70;;;;;;;8.24;100.00;100049.81;6218313;23;20008;-74
2021/10/21 05:59:01;;;;;;;5.88;1.35;;;;;;;8.20;100.00;100046.00;6191303;23;20328;-73
2021/10/21 06:01:27;;;;;;;12.30;1.88;;;;;;;8.19;100.00;100044.34;6220275;23;20005;-74
2021/10/21 06:03:52;;;;;;;6.00;1.63;;;;;;;8.18;100.00;100050.97;6219987;23;20031;-74
2021/10/21 06:06:18;;;;;;;10.32;2.25;;;;;;;8.20;100.00;100048.75;6219350;23;20448;-74
2021/10/21 06:08:45;;;;;;;15.88;2.35;;;;;;;8.18;100.00;100034.38;6220146;23;20005;-74
2021/10/21 06:11:11;;;;;;;7.03;1.50;;;;;;;8.19;100.00;100044.34;6219876;23;20036;-74
2021/10/21 06:13:36;;;;;;;12.15;2.03;;;;;;;8.18;100.00;100042.69;6219313;23;20311;-74
2021/10/21 06:16:02;;;;;;;9.40;1.90;;;;;;;8.15;100.00;100034.97;6220140;23;20015;-69
2021/10/21 06:18:28;;;;;;;18.52;5.20;;;;;;;8.19;100.00;100037.97;6219714;23;20566;-68
2021/10/21 06:20:54;;;;;;;19.70;5.55;;;;;;;8.19;100.00;100041.59;6193215;23;20083;-69
2021/10/21 06:23:19;;;;;;;17.75;3.92;;;;;;;8.16;100.00;100036.63;6168491;23;20452;-69
2021/10/21 06:25:45;;;;;;;16.10;3.08;;;;;;;8.19;100.00;100035.22;6192792;23;20012;-77
2021/10/21 06:28:11;;;;;;;14.80;2.72;;;;;;;8.19;100.00;100035.22;6168404;23;20496;-70
2021/10/21 06:30:36;;;;;;;15.52;2.53;;;;;;;8.17;100.00;100027.22;6219727;23;20032;-69
2021/10/21 06:33:03;;;;;;;12.43;2.40;;;;;;;8.17;100.00;100032.75;6219476;23;20492;-70
2021/10/21 06:35:29;;;;;;;11.20;2.20;;;;;;;8.18;100.00;100028.03;6167943;23;20060;-70
2021/10/21 06:37:55;;;;;;;14.55;2.50;;;;;;;8.16;100.00;100030.25;6166828;23;20322;-70
2021/10/21 06:40:20;;;;;;;12.88;2.20;;;;;;;8.14;100.00;100038.03;6143415;23;20012;-70
2021/10/21 06:42:46;;;;;;;9.52;1.90;;;;;;;8.14;100.00;100036.09;6193712;23;20004;-70
2021/10/21 06:45:11;;;;;;;11.15;2.10;;;;;;;8.17;100.00;100043.81;6118666;23;20008;-70
2021/10/21 06:47:41;;;;;;;10.38;2.13;;;;;;;8.18;100.00;100039.09;6119133;23;20013;-70
2021/10/21 06:50:09;;;;;;;12.75;2.00;;;;;;;8.16;100.00;100052.38;6120119;23;20019;-70
2021/10/21 06:52:36;;;;;;;11.55;2.55;;;;;;;8.17;100.00;100049.34;6168874;23;20016;-70
2021/10/21 06:55:01;;;;;;;10.60;2.08;;;;;;;8.21;100.00;100050.41;6167874;23;20004;-70
2021/10/21 06:57:27;;;;;;;13.95;2.28;;;;;;;8.22;100.00;100042.97;6168845;23;20012;-70
2021/10/21 06:59:52;;;;;;;16.55;2.05;;;;;;;8.25;100.00;100045.13;6142977;23;20008;-70
2021/10/21 07:02:18;;;;;;;11.48;2.55;;;;;;;8.32;100.00;100059.44;6143338;23;20008;-70
2021/10/21 07:04:43;;;;;;;10.93;2.17;;;;;;;8.39;100.00;100050.84;6168796;23;20016;-70
2021/10/21 07:07:09;;;;;;;14.27;2.75;;;;;;;8.43;100.00;100054.69;6192507;23;20035;-70
2021/10/21 07:09:34;;;;;;;8.73;2.30;;;;;;;8.48;100.00;100041.63;6168199;23;20016;-70
2021/10/21 07:12:00;;;;;;;11.23;2.42;;;;;;;8.56;100.00;100055.97;6192845;23;20005;-70
2021/10/21 07:14:25;;;;;;;10.82;2.33;;;;;;;8.62;100.00;100050.06;6141751;23;20009;-69
2021/10/21 07:16:51;;;;;;;10.60;1.98;;;;;;;8.68;100.00;100054.44;6143100;23;20004;-70
2021/10/21 07:19:16;;;;;;;15.20;2.38;;;;;;;8.74;100.00;100041.34;6168284;23;20004;-69
2021/10/21 07:21:42;;;;;;;16.42;2.83;;;;;;;8.86;100.00;100052.03;6167574;23;20019;-70
2021/10/21 07:24:08;;;;;;;12.75;1.92;;;;;;;8.89;100.00;100048.69;6167934;23;20008;-70
2021/10/21 07:26:33;;;;;;;15.70;2.55;;;;;;;8.97;100.00;100050.81;6118820;23;20021;-70
2021/10/21 07:28:59;;;;;;;11.32;2.00;;;;;;;9.01;100.00;100057.41;6167485;23;20009;-70
2021/10/21 07:31:26;;;;;;;12.60;2.40;;;;;;;9.08;100.00;100068.97;6143615;23;20012;-69
2021/10/21 07:33:51;;;;;;;14.68;2.92;;;;;;;9.12;100.00;100058.94;6168315;23;20437;-69
2021/10/21 07:36:19;;;;;;;16.05;2.45;;;;;;;9.18;100.00;100051.38;6167413;23;20013;-70
2021/10/21 07:38:45;;;;;;;11.13;2.20;;;;;;;9.23;100.00;100048.56;6169071;23;20005;-70
2021/10/21 07:41:11;;;;;;;14.20;2.58;;;;;;;9.31;100.00;100055.38;6143043;23;20095;-69
2021/10/21 07:43:36;;;;;;;18.42;2.78;;;;;;;9.36;100.00;100052.53;6142719;23;20022;-70
2021/10/21 07:46:02;;;;;;;18.50;3.13;;;;;;;9.42;100.00;100051.38;6192628;23;20032;-69
2021/10/21 07:48:28;;;;;;;16.48;2.72;;;;;;;9.50;100.00;100056.25;6167363;23;20015;-69
2021/10/21 07:50:54;;;;;;;18.30;2.97;;;;;;;9.53;100.00;100050.09;6143268;23;20008;-69
2021/10/21 07:53:19;;;;;;;18.05;2.47;;;;;;;9.59;100.00;100060.00;6167642;23;20020;-69
2021/10/21 07:55:45;;;;;;;21.58;2.78;;;;;;;9.65;100.00;100057.16;6192270;23;20009;-69
2021/10/21 07:58:11;;;;;;;15.98;2.45;;;;;;;9.70;100.00;100057.09;6168023;23;20009;-69
2021/10/21 08:00:38;;;;;;;11.20;2.65;;;;;;;9.73;100.00;100068.41;6143178;23;20005;-70
2021/10/21 08:03:03;;;;;;;17.15;2.60;;;;;;;9.77;100.00;100063.06;6167670;23;20011;-70
2021/10/21 08:05:29;;;;;;;18.33;2.75;;;;;;;9.82;100.00;100065.78;6118738;23;20012;-70
2021/10/21 08:07:54;;;;;;;19.60;2.45;;;;;;;9.86;100.00;100061.25;6167513;23;20757;-70
2021/10/21 08:10:20;;;;;;;20.98;2.83;;;;;;;9.89;100.00;100066.22;6142469;23;20008;-69
2021/10/21 08:12:46;;;;;;;15.70;2.38;;;;;;;9.94;100.00;100068.09;6167776;23;20012;-69
2021/10/21 08:15:12;;;;;;;16.83;2.40;;;;;;;9.96;100.00;100066.66;6167060;23;20008;-69
2021/10/21 08:17:38;;;;;;;18.75;2.35;;;;;;;9.99;100.00;100066.06;6142853;23;20071;-70
2021/10/21 08:20:04;;;;;;;17.52;2.50;;;;;;;10.06;100.00;100066.50;6219413;23;20083;-70
2021/10/21 08:22:32;;;;;;;20.27;3.58;;;;;;;10.08;100.00;100071.75;6167068;23;20423;-70
2021/10/21 08:24:57;;;;;;;19.85;2.70;;;;;;;10.11;100.00;100062.81;6168228;23;20099;-70
2021/10/21 08:27:23;;;;;;;16.55;2.72;;;;;;;10.16;100.00;100070.25;6167553;23;20016;-70
2021/10/21 08:29:48;;;;;;;17.85;3.17;;;;;;;10.22;100.00;100069.03;6141990;23;20009;-70
2021/10/21 08:32:14;;;;;;;14.65;2.58;;;;;;;10.28;100.00;100057.59;6142945;23;20012;-69
2021/10/21 08:34:39;;;;;;;16.88;2.35;;;;;;;10.33;100.00;100047.50;6167611;23;20134;-70
2021/10/21 08:37:05;;;;;;;15.15;2.45;;;;;;;10.36;100.00;100047.72;6142497;23;20064;-69
2021/10/21 08:39:31;;;;;;;19.42;2.22;;;;;;;10.39;100.00;100055.47;6167326;23;20004;-70
2021/10/21 08:41:56;;;;;;;17.73;2.90;;;;;;;10.44;100.00;100073.97;6166935;23;20511;-70
2021/10/21 08:44:22;;;;;;;19.83;2.78;;;;;;;10.48;100.00;100069.47;6117125;23;20005;-70
2021/10/21 08:46:51;;;;;;;18.35;2.35;;;;;;;10.52;100.00;100067.72;6167357;23;20005;-70
2021/10/21 08:49:16;;;;;;;16.98;2.63;;;;;;;10.56;100.00;100062.38;6167037;23;20013;-70
2021/10/21 08:51:42;;;;;;;13.25;2.15;;;;;;;10.60;100.00;100074.53;6142559;23;20008;-70
2021/10/21 08:54:08;;;;;;;18.75;2.92;;;;;;;10.64;100.00;100067.22;6166291;23;20058;-70
2021/10/21 08:56:33;;;;;;;13.63;2.15;;;;;;;10.70;100.00;100066.03;6117819;23;20005;-70
2021/10/21 08:59:02;;;;;;;18.80;2.53;;;;;;;10.77;100.00;100066.44;6166979;23;20334;-70
2021/10/21 09:09:26;;;;;;;19.13;3.10;;;;;;;11.00;100.00;100041.56;6191832;23;20040;-70
2021/10/21 09:12:05;;;;;;;17.65;2.65;;;;;;;11.10;100.00;100049.69;6167197;23;20012;-70
2021/10/21 09:14:34;;;;;;;18.23;2.80;;;;;;;11.21;100.00;100053.91;6142568;23;20453;-70
2021/10/21 09:17:01;;;;;;;19.85;2.70;;;;;;;11.33;100.00;100039.50;6142902;23;20410;-70
2021/10/21 09:19:27;;;;;;;21.80;2.58;;;;;;;11.43;100.00;100053.19;6142566;23;20009;-70
2021/10/21 09:21:53;;;;;;;27.73;2.50;;;;;;;11.53;100.00;100050.19;6142679;23;20019;-70
2021/10/21 09:24:41;;;;;;;23.13;2.92;;;;;;;11.67;100.00;100052.09;6167188;23;20008;-70
2021/10/21 09:27:12;;;;;;;21.90;2.97;;;;;;;11.76;100.00;100044.69;6145327;23;20087;-70
2021/10/21 09:29:46;;;;;;;19.40;2.58;;;;;;;11.86;100.00;100036.09;6140810;23;20008;-70
2021/10/21 09:32:18;;;;;;;25.33;3.33;;;;;;;11.94;100.00;100038.13;6168458;23;20031;-70
2021/10/21 09:34:57;;;;;;;20.52;2.55;;;;;;;12.01;100.00;100046.88;6168007;23;20055;-70
2021/10/21 09:37:24;;;;;;;22.23;3.25;;;;;;;12.08;100.00;100030.56;6168660;23;20004;-70
2021/10/21 09:39:58;;;;;;;19.33;2.40;;;;;;;12.16;100.00;100044.88;6120530;23;20385;-70
2021/10/21 09:42:31;;;;;;;22.65;3.08;;;;;;;12.22;100.00;100036.06;6194173;23;20028;-70
2021/10/21 09:45:16;;;;;;;25.65;2.67;;;;;;;12.30;100.00;100035.31;6168459;23;20577;-70
2021/10/21 09:47:44;;;;;;;21.40;3.08;;;;;;;12.37;100.00;100046.00;6144198;23;20598;-70
2021/10/21 09:50:20;;;;;;;19.35;3.10;;;;;;;12.46;100.00;100044.09;6145052;23;20088;-69
2021/10/21 09:53:07;;;;;;;20.15;2.45;;;;;;;12.53;100.00;100044.44;6143850;23;20062;-70
2021/10/21 09:55:37;;;;;;;15.02;2.35;;;;;;;12.62;100.00;100054.81;6218549;23;20005;-70
2021/10/21 09:58:06;;;;;;;22.27;2.65;;;;;;;12.68;100.00;100046.03;6170192;23;20015;-70
2021/10/21 10:00:34;;;;;;;26.33;2.70;;;;;;;12.74;100.00;100064.25;6167792;23;20008;-70
2021/10/21 10:03:10;;;;;;;23.33;3.67;;;;;;;12.83;100.00;100074.63;6144395;23;20008;-70
2021/10/21 10:05:40;;;;;;;17.60;2.60;;;;;;;12.90;100.00;100061.88;6170178;23;20012;-70
2021/10/21 10:08:08;;;;;;;22.55;3.20;;;;;;;12.96;100.00;100065.34;6168680;23;20008;-70
2021/10/21 10:10:36;;;;;;;15.30;3.10;;;;;;;13.03;100.00;100074.06;6144546;23;20005;-70
2021/10/21 10:13:01;;;;;;;26.05;3.47;;;;;;;13.08;100.00;100067.53;6168937;23;20075;-71
2021/10/21 10:15:27;;;;;;;20.33;2.78;;;;;;;13.14;100.00;100066.22;6167263;23;20334;-71
2021/10/21 10:17:52;;;;;;;17.83;2.67;;;;;;;13.20;100.00;100073.31;6168400;23;20009;-71
2021/10/21 10:20:28;;;;;;;17.27;2.92;;;;;;;13.26;100.00;100074.00;6143090;23;20005;-71
2021/10/21 10:22:53;;;;;;;22.38;2.67;;;;;;;13.34;100.00;100081.59;6143759;23;20330;-71
2021/10/21 10:25:20;;;;;;;21.75;2.67;;;;;;;13.40;100.00;100074.75;6167630;23;20071;-71
2021/10/21 10:27:59;;;;;;;22.27;2.55;;;;;;;13.47;100.00;100068.69;6143665;23;20035;-71
2021/10/21 10:30:52;;;;;;;12.65;2.63;;;;;;;13.57;100.00;100073.97;6167602;23;20023;-71
2021/10/21 10:33:32;;;;;;;15.70;2.27;;;;;;;13.69;100.00;100076.13;6164740;23;20009;-71
2021/10/21 10:36:27;;;;;;;11.65;2.28;;;;;;;13.75;100.00;100070.03;6219835;23;20329;-71
2021/10/21 10:38:56;;;;;;;15.02;2.30;;;;;;;13.82;100.00;100070.41;6192024;23;20013;-71
2021/10/21 10:41:57;;;;;;;19.70;2.67;;;;;;;13.90;100.00;100074.34;6143335;23;20005;-71
2021/10/21 10:44:35;;;;;;;16.35;2.67;;;;;;;13.97;100.00;100080.25;6106746;23;20009;-71
2021/10/21 10:47:01;;;;;;;15.35;2.13;;;;;;;14.04;100.00;100083.38;6156533;23;20024;-72
2021/10/21 10:49:39;;;;;;;20.23;2.60;;;;;;;14.14;100.00;100082.22;6132081;23;20399;-71
2021/10/21 10:52:10;;;;;;;13.52;2.30;;;;;;;14.26;100.00;100089.94;6130660;23;20489;-71
2021/10/21 10:54:51;;;;;;;15.60;2.47;;;;;;;14.40;100.00;100085.03;6132731;23;20057;-71
2021/10/21 10:57:25;;;;;;;13.52;2.00;;;;;;;14.50;100.00;100070.69;6131169;23;20019;-71
2021/10/21 10:59:57;;;;;;;17.95;2.95;;;;;;;14.62;100.00;100077.59;6131335;23;20048;-71
2021/10/21 11:02:23;;;;;;;10.60;2.05;;;;;;;14.72;100.00;100080.06;6131610;23;20010;-71
2021/10/21 11:04:51;;;;;;;14.15;2.00;;;;;;;14.77;100.00;100087.47;6132192;23;20455;-71
2021/10/21 11:07:37;;;;;;;9.98;1.90;;;;;;;14.81;100.00;100089.25;6131173;23;20009;-71
2021/10/21 11:10:22;;;;;;;10.27;2.00;;;;;;;14.85;100.00;100095.81;6135327;23;20057;-71
2021/10/21 11:12:51;;;;;;;11.57;2.03;;;;;;;14.87;100.00;100104.69;6131983;23;20018;-71
2021/10/21 11:15:29;;;;;;;10.30;1.50;;;;;;;14.87;100.00;100106.66;6083269;23;20041;-71
2021/10/21 11:17:57;;;;;;;14.52;1.63;;;;;;;14.85;100.00;100117.34;6150259;23;20450;-71
2021/10/21 11:20:31;;;;;;;10.65;1.92;;;;;;;14.78;100.00;100114.25;6144227;23;20000;-71
2021/10/21 11:23:08;;;;;;;9.77;1.42;;;;;;;14.72;100.00;100122.00;6219398;23;20012;-71
2021/10/21 11:25:36;;;;;;;11.95;1.50;;;;;;;14.67;100.00;100139.75;6143440;23;20484;-72
2021/10/21 11:28:02;;;;;;;7.32;1.75;;;;;;;14.61;100.00;100168.19;6192507;23;20004;-71